sensor_id;sensor_type;location;lat;lon;timestamp;temperature;humidity
11264;DHT22;5689;48.798;9.070;2022-12-10T00:01:24;1.90;99.90
11264;DHT22;5689;48.798;9.070;2022-12-10T00:03:53;1.60;99.90
11264;DHT22;5689;48.798;9.070;2022-12-10T00:06:24;1.40;99.90
11264;DHT22;5689;48.798;9.070;2022-12-10T00:08:52;1.30;99.90
11264;DHT22;5689;48.798;9.070;2022-12-10T00:11:22;1.30;99.90
11264;DHT22;5689;48.798;9.070;2022-12-10T00:13:50;1.50;99.90
11264;DHT22;5689;48.798;9.070;2022-12-10T00:16:22;1.30;99.90
11264;DHT22;5689;48.798;9.070;2022-12-10T00:18:51;1.30;99.90
11264;DHT22;5689;48.798;9.070;2022-12-10T00:21:21;1.30;99.90
11264;DHT22;5689;48.798;9.070;2022-12-10T00:23:49;1.30;99.90
11264;DHT22;5689;48.798;9.070;2022-12-10T00:26:19;1.40;99.90
11264;DHT22;5689;48.798;9.070;2022-12-10T00:28:48;1.40;99.90
11264;DHT22;5689;48.798;9.070;2022-12-10T00:31:20;1.20;99.90
11264;DHT22;5689;48.798;9.070;2022-12-10T00:33:50;1.10;99.90
11264;DHT22;5689;48.798;9.070;2022-12-10T00:36:20;1.20;99.90
11264;DHT22;5689;48.798;9.070;2022-12-10T00:38:48;1.30;99.90
11264;DHT22;5689;48.798;9.070;2022-12-10T00:41:17;1.40;99.90
11264;DHT22;5689;48.798;9.070;2022-12-10T00:43:46;1.50;99.90
11264;DHT22;5689;48.798;9.070;2022-12-10T00:46:15;1.60;99.90
11264;DHT22;5689;48.798;9.070;2022-12-10T00:48:46;1.70;99.90
11264;DHT22;5689;48.798;9.070;2022-12-10T00:51:16;1.30;99.90
11264;DHT22;5689;48.798;9.070;2022-12-10T00:53:46;1.30;99.90
11264;DHT22;5689;48.798;9.070;2022-12-10T00:56:30;1.20;99.90
11264;DHT22;5689;48.798;9.070;2022-12-10T00:59:00;1.20;99.90
11264;DHT22;5689;48.798;9.070;2022-12-10T01:01:29;1.20;99.90
11264;DHT22;5689;48.798;9.070;2022-12-10T01:04:03;1.20;99.90
11264;DHT22;5689;48.798;9.070;2022-12-10T01:06:33;1.30;99.90
11264;DHT22;5689;48.798;9.070;2022-12-10T01:09:04;1.40;99.90
11264;DHT22;5689;48.798;9.070;2022-12-10T01:11:35;1.30;99.90
11264;DHT22;5689;48.798;9.070;2022-12-10T01:14:05;1.10;99.90
11264;DHT22;5689;48.798;9.070;2022-12-10T01:16:46;1.10;99.90
11264;DHT22;5689;48.798;9.070;2022-12-10T01:19:17;1.10;99.90
11264;DHT22;5689;48.798;9.070;2022-12-10T01:21:45;1.10;99.90
11264;DHT22;5689;48.798;9.070;2022-12-10T01:24:17;1.10;99.90
11264;DHT22;5689;48.798;9.070;2022-12-10T01:26:45;1.10;99.90
11264;DHT22;5689;48.798;9.070;2022-12-10T01:29:13;1.20;99.90
11264;DHT22;5689;48.798;9.070;2022-12-10T01:31:42;1.30;99.90
11264;DHT22;5689;48.798;9.070;2022-12-10T01:34:12;1.00;99.90
11264;DHT22;5689;48.798;9.070;2022-12-10T01:36:44;1.00;99.90
11264;DHT22;5689;48.798;9.070;2022-12-10T01:39:15;1.00;99.90
11264;DHT22;5689;48.798;9.070;2022-12-10T01:41:44;1.00;99.90
11264;DHT22;5689;48.798;9.070;2022-12-10T01:47:19;1.00;99.90
11264;DHT22;5689;48.798;9.070;2022-12-10T01:49:48;1.00;99.90
11264;DHT22;5689;48.798;9.070;2022-12-10T01:52:18;1.20;99.90
11264;DHT22;5689;48.798;9.070;2022-12-10T01:54:47;1.20;99.90
11264;DHT22;5689;48.798;9.070;2022-12-10T01:57:17;1.30;99.90
11264;DHT22;5689;48.798;9.070;2022-12-10T01:59:48;1.30;99.90
11264;DHT22;5689;48.798;9.070;2022-12-10T02:02:22;1.30;99.90
11264;DHT22;5689;48.798;9.070;2022-12-10T02:05:01;1.40;99.90
11264;DHT22;5689;48.798;9.070;2022-12-10T02:07:41;1.40;99.90
11264;DHT22;5689;48.798;9.070;2022-12-10T02:10:19;1.20;99.90
11264;DHT22;5689;48.798;9.070;2022-12-10T02:12:54;1.10;99.90
11264;DHT22;5689;48.798;9.070;2022-12-10T02:15:27;1.20;99.90
11264;DHT22;5689;48.798;9.070;2022-12-10T02:17:57;1.30;99.90
11264;DHT22;5689;48.798;9.070;2022-12-10T02:20:30;1.40;99.90
11264;DHT22;5689;48.798;9.070;2022-12-10T02:23:06;1.40;99.90
11264;DHT22;5689;48.798;9.070;2022-12-10T02:25:39;1.50;99.90
11264;DHT22;5689;48.798;9.070;2022-12-10T02:28:16;1.50;99.90
11264;DHT22;5689;48.798;9.070;2022-12-10T02:30:49;1.50;99.90
11264;DHT22;5689;48.798;9.070;2022-12-10T02:33:19;1.70;99.90
11264;DHT22;5689;48.798;9.070;2022-12-10T02:35:50;1.60;99.90
11264;DHT22;5689;48.798;9.070;2022-12-10T02:38:22;1.70;99.90
11264;DHT22;5689;48.798;9.070;2022-12-10T02:40:57;1.80;99.90
11264;DHT22;5689;48.798;9.070;2022-12-10T02:43:27;1.60;99.90
11264;DHT22;5689;48.798;9.070;2022-12-10T02:45:59;1.40;99.90
11264;DHT22;5689;48.798;9.070;2022-12-10T02:48:29;1.30;99.90
11264;DHT22;5689;48.798;9.070;2022-12-10T02:50:58;1.30;99.90
11264;DHT22;5689;48.798;9.070;2022-12-10T02:53:26;1.20;99.90
11264;DHT22;5689;48.798;9.070;2022-12-10T02:56:14;1.20;99.90
11264;DHT22;5689;48.798;9.070;2022-12-10T02:58:57;1.10;99.90
11264;DHT22;5689;48.798;9.070;2022-12-10T03:01:37;1.00;99.90
11264;DHT22;5689;48.798;9.070;2022-12-10T03:04:13;0.90;99.90
11264;DHT22;5689;48.798;9.070;2022-12-10T03:06:44;0.80;99.90
11264;DHT22;5689;48.798;9.070;2022-12-10T03:09:19;0.90;99.90
11264;DHT22;5689;48.798;9.070;2022-12-10T03:11:52;1.00;99.90
11264;DHT22;5689;48.798;9.070;2022-12-10T03:14:28;1.00;99.90
11264;DHT22;5689;48.798;9.070;2022-12-10T03:16:59;1.10;99.90
11264;DHT22;5689;48.798;9.070;2022-12-10T03:19:31;0.90;99.90
11264;DHT22;5689;48.798;9.070;2022-12-10T03:22:02;0.90;99.90
11264;DHT22;5689;48.798;9.070;2022-12-10T03:24:31;0.90;99.90
11264;DHT22;5689;48.798;9.070;2022-12-10T03:27:01;1.00;99.90
11264;DHT22;5689;48.798;9.070;2022-12-10T03:29:34;1.20;99.90
11264;DHT22;5689;48.798;9.070;2022-12-10T03:32:05;1.10;99.90
11264;DHT22;5689;48.798;9.070;2022-12-10T03:34:35;0.90;99.90
11264;DHT22;5689;48.798;9.070;2022-12-10T03:37:03;0.80;99.90
11264;DHT22;5689;48.798;9.070;2022-12-10T03:39:32;0.70;99.90
11264;DHT22;5689;48.798;9.070;2022-12-10T03:42:01;0.70;99.90
11264;DHT22;5689;48.798;9.070;2022-12-10T03:44:31;0.80;99.90
11264;DHT22;5689;48.798;9.070;2022-12-10T03:46:59;0.80;99.90
11264;DHT22;5689;48.798;9.070;2022-12-10T03:49:29;0.90;99.90
11264;DHT22;5689;48.798;9.070;2022-12-10T03:51:57;1.00;99.90
11264;DHT22;5689;48.798;9.070;2022-12-10T03:54:25;1.00;99.90
11264;DHT22;5689;48.798;9.070;2022-12-10T03:56:53;1.10;99.90
11264;DHT22;5689;48.798;9.070;2022-12-10T03:59:21;1.20;99.90
11264;DHT22;5689;48.798;9.070;2022-12-10T04:01:49;1.20;99.90
11264;DHT22;5689;48.798;9.070;2022-12-10T04:04:17;1.30;99.90
11264;DHT22;5689;48.798;9.070;2022-12-10T04:06:47;1.30;99.90
11264;DHT22;5689;48.798;9.070;2022-12-10T04:09:15;1.10;99.90
11264;DHT22;5689;48.798;9.070;2022-12-10T04:11:43;1.20;99.90
11264;DHT22;5689;48.798;9.070;2022-12-10T04:14:12;1.10;99.90
11264;DHT22;5689;48.798;9.070;2022-12-10T04:16:58;1.20;99.90
11264;DHT22;5689;48.798;9.070;2022-12-10T04:19:27;1.10;99.90
11264;DHT22;5689;48.798;9.070;2022-12-10T04:21:56;0.90;99.90
11264;DHT22;5689;48.798;9.070;2022-12-10T04:24:42;0.80;99.90
11264;DHT22;5689;48.798;9.070;2022-12-10T04:27:28;0.70;99.90
11264;DHT22;5689;48.798;9.070;2022-12-10T04:29:58;0.60;99.90
11264;DHT22;5689;48.798;9.070;2022-12-10T04:32:28;0.60;99.90
11264;DHT22;5689;48.798;9.070;2022-12-10T04:34:56;0.60;99.90
11264;DHT22;5689;48.798;9.070;2022-12-10T04:37:27;0.70;99.90
11264;DHT22;5689;48.798;9.070;2022-12-10T04:39:55;0.80;99.90
11264;DHT22;5689;48.798;9.070;2022-12-10T04:42:23;0.70;99.90
11264;DHT22;5689;48.798;9.070;2022-12-10T04:44:51;0.70;99.90
11264;DHT22;5689;48.798;9.070;2022-12-10T04:47:19;0.60;99.90
11264;DHT22;5689;48.798;9.070;2022-12-10T04:49:47;0.60;99.90
11264;DHT22;5689;48.798;9.070;2022-12-10T04:52:16;0.60;99.90
11264;DHT22;5689;48.798;9.070;2022-12-10T04:54:45;0.50;99.90
11264;DHT22;5689;48.798;9.070;2022-12-10T04:57:13;0.50;99.90
11264;DHT22;5689;48.798;9.070;2022-12-10T04:59:41;0.60;99.90
11264;DHT22;5689;48.798;9.070;2022-12-10T05:02:09;0.60;99.90
11264;DHT22;5689;48.798;9.070;2022-12-10T05:04:37;0.70;99.90
11264;DHT22;5689;48.798;9.070;2022-12-10T05:07:06;0.60;99.90
11264;DHT22;5689;48.798;9.070;2022-12-10T05:09:34;0.70;99.90
11264;DHT22;5689;48.798;9.070;2022-12-10T05:12:04;0.70;99.90
11264;DHT22;5689;48.798;9.070;2022-12-10T05:14:32;0.70;99.90
11264;DHT22;5689;48.798;9.070;2022-12-10T05:17:00;0.60;99.90
11264;DHT22;5689;48.798;9.070;2022-12-10T05:19:28;0.60;99.90
11264;DHT22;5689;48.798;9.070;2022-12-10T05:21:56;0.60;99.90
11264;DHT22;5689;48.798;9.070;2022-12-10T05:24:42;0.70;99.90
11264;DHT22;5689;48.798;9.070;2022-12-10T05:27:11;0.70;99.90
11264;DHT22;5689;48.798;9.070;2022-12-10T05:29:39;0.80;99.90
11264;DHT22;5689;48.798;9.070;2022-12-10T05:32:07;0.80;99.90
11264;DHT22;5689;48.798;9.070;2022-12-10T05:34:35;0.70;99.90
11264;DHT22;5689;48.798;9.070;2022-12-10T05:37:03;0.70;99.90
11264;DHT22;5689;48.798;9.070;2022-12-10T05:39:31;0.70;99.90
11264;DHT22;5689;48.798;9.070;2022-12-10T05:41:59;0.70;99.90
11264;DHT22;5689;48.798;9.070;2022-12-10T05:44:28;0.70;99.90
11264;DHT22;5689;48.798;9.070;2022-12-10T05:46:57;0.60;99.90
11264;DHT22;5689;48.798;9.070;2022-12-10T05:49:25;0.60;99.90
11264;DHT22;5689;48.798;9.070;2022-12-10T05:51:54;0.40;99.90
11264;DHT22;5689;48.798;9.070;2022-12-10T05:54:22;0.50;99.90
11264;DHT22;5689;48.798;9.070;2022-12-10T05:56:50;0.50;99.90
11264;DHT22;5689;48.798;9.070;2022-12-10T05:59:20;0.50;99.90
11264;DHT22;5689;48.798;9.070;2022-12-10T06:01:49;0.50;99.90
11264;DHT22;5689;48.798;9.070;2022-12-10T06:04:17;0.40;99.90
11264;DHT22;5689;48.798;9.070;2022-12-10T06:06:45;0.30;99.90
11264;DHT22;5689;48.798;9.070;2022-12-10T06:09:14;0.40;99.90
11264;DHT22;5689;48.798;9.070;2022-12-10T06:11:42;0.40;99.90
11264;DHT22;5689;48.798;9.070;2022-12-10T06:14:10;0.40;99.90
11264;DHT22;5689;48.798;9.070;2022-12-10T06:16:39;0.30;99.90
11264;DHT22;5689;48.798;9.070;2022-12-10T06:19:09;0.30;99.90
11264;DHT22;5689;48.798;9.070;2022-12-10T06:21:37;0.40;99.90
11264;DHT22;5689;48.798;9.070;2022-12-10T06:24:06;0.40;99.90
11264;DHT22;5689;48.798;9.070;2022-12-10T06:26:34;0.30;99.90
11264;DHT22;5689;48.798;9.070;2022-12-10T06:29:02;0.40;99.90
11264;DHT22;5689;48.798;9.070;2022-12-10T06:31:31;0.40;99.90
11264;DHT22;5689;48.798;9.070;2022-12-10T06:33:59;0.40;99.90
11264;DHT22;5689;48.798;9.070;2022-12-10T06:36:28;0.50;99.90
11264;DHT22;5689;48.798;9.070;2022-12-10T06:38:56;0.50;99.90
11264;DHT22;5689;48.798;9.070;2022-12-10T06:41:25;0.40;99.90
11264;DHT22;5689;48.798;9.070;2022-12-10T06:43:53;0.40;99.90
11264;DHT22;5689;48.798;9.070;2022-12-10T06:46:26;0.50;99.90
11264;DHT22;5689;48.798;9.070;2022-12-10T06:48:55;0.40;99.90
11264;DHT22;5689;48.798;9.070;2022-12-10T06:51:24;0.50;99.90
11264;DHT22;5689;48.798;9.070;2022-12-10T06:53:54;0.50;99.90
11264;DHT22;5689;48.798;9.070;2022-12-10T06:56:22;0.50;99.90
11264;DHT22;5689;48.798;9.070;2022-12-10T06:58:52;0.60;99.90
11264;DHT22;5689;48.798;9.070;2022-12-10T07:01:22;0.60;99.90
11264;DHT22;5689;48.798;9.070;2022-12-10T07:03:53;0.60;99.90
11264;DHT22;5689;48.798;9.070;2022-12-10T07:06:22;0.50;99.90
11264;DHT22;5689;48.798;9.070;2022-12-10T07:08:51;0.50;99.90
11264;DHT22;5689;48.798;9.070;2022-12-10T07:11:23;0.50;99.90
11264;DHT22;5689;48.798;9.070;2022-12-10T07:13:51;0.60;99.90
11264;DHT22;5689;48.798;9.070;2022-12-10T07:16:21;0.50;99.90
11264;DHT22;5689;48.798;9.070;2022-12-10T07:18:50;0.60;99.90
11264;DHT22;5689;48.798;9.070;2022-12-10T07:21:20;0.60;99.90
11264;DHT22;5689;48.798;9.070;2022-12-10T07:23:50;0.70;99.90
11264;DHT22;5689;48.798;9.070;2022-12-10T07:26:18;0.70;99.90
11264;DHT22;5689;48.798;9.070;2022-12-10T07:28:48;0.70;99.90
11264;DHT22;5689;48.798;9.070;2022-12-10T07:31:19;0.60;99.90
11264;DHT22;5689;48.798;9.070;2022-12-10T07:33:47;0.50;99.90
11264;DHT22;5689;48.798;9.070;2022-12-10T07:36:15;0.60;99.90
11264;DHT22;5689;48.798;9.070;2022-12-10T07:38:43;0.60;99.90
11264;DHT22;5689;48.798;9.070;2022-12-10T07:41:12;0.40;99.90
11264;DHT22;5689;48.798;9.070;2022-12-10T07:43:42;0.50;99.90
11264;DHT22;5689;48.798;9.070;2022-12-10T07:46:14;0.50;99.90
11264;DHT22;5689;48.798;9.070;2022-12-10T07:48:44;0.60;99.90
11264;DHT22;5689;48.798;9.070;2022-12-10T07:51:13;0.60;99.90
11264;DHT22;5689;48.798;9.070;2022-12-10T07:53:42;0.50;99.90
11264;DHT22;5689;48.798;9.070;2022-12-10T07:56:11;0.60;99.90
11264;DHT22;5689;48.798;9.070;2022-12-10T07:58:41;0.70;99.90
11264;DHT22;5689;48.798;9.070;2022-12-10T08:01:13;0.60;99.90
11264;DHT22;5689;48.798;9.070;2022-12-10T08:03:42;0.70;99.90
11264;DHT22;5689;48.798;9.070;2022-12-10T08:06:12;0.70;99.90
11264;DHT22;5689;48.798;9.070;2022-12-10T08:08:41;0.60;99.90
11264;DHT22;5689;48.798;9.070;2022-12-10T08:11:11;0.70;99.90
11264;DHT22;5689;48.798;9.070;2022-12-10T08:13:39;0.70;99.90
11264;DHT22;5689;48.798;9.070;2022-12-10T08:16:10;0.60;99.90
11264;DHT22;5689;48.798;9.070;2022-12-10T08:18:40;0.70;99.90
11264;DHT22;5689;48.798;9.070;2022-12-10T08:21:11;0.70;99.90
11264;DHT22;5689;48.798;9.070;2022-12-10T08:23:40;0.70;99.90
11264;DHT22;5689;48.798;9.070;2022-12-10T08:26:10;0.70;99.90
11264;DHT22;5689;48.798;9.070;2022-12-10T08:28:39;0.60;99.90
11264;DHT22;5689;48.798;9.070;2022-12-10T08:31:08;0.50;99.90
11264;DHT22;5689;48.798;9.070;2022-12-10T08:33:38;0.60;99.90
11264;DHT22;5689;48.798;9.070;2022-12-10T08:36:10;0.60;99.90
11264;DHT22;5689;48.798;9.070;2022-12-10T08:38:39;0.60;99.90
11264;DHT22;5689;48.798;9.070;2022-12-10T08:41:09;0.90;99.90
11264;DHT22;5689;48.798;9.070;2022-12-10T08:43:37;0.70;99.90
11264;DHT22;5689;48.798;9.070;2022-12-10T08:46:05;0.70;99.90
11264;DHT22;5689;48.798;9.070;2022-12-10T08:48:34;0.70;99.90
11264;DHT22;5689;48.798;9.070;2022-12-10T08:51:03;0.70;99.90
11264;DHT22;5689;48.798;9.070;2022-12-10T08:53:34;0.80;99.90
11264;DHT22;5689;48.798;9.070;2022-12-10T08:56:03;0.90;99.90
11264;DHT22;5689;48.798;9.070;2022-12-10T08:58:31;0.90;99.90
11264;DHT22;5689;48.798;9.070;2022-12-10T09:00:59;0.90;99.90
11264;DHT22;5689;48.798;9.070;2022-12-10T09:03:28;1.00;99.90
11264;DHT22;5689;48.798;9.070;2022-12-10T09:05:56;0.90;99.90
11264;DHT22;5689;48.798;9.070;2022-12-10T09:08:24;0.80;99.90
11264;DHT22;5689;48.798;9.070;2022-12-10T09:10:53;0.90;99.90
11264;DHT22;5689;48.798;9.070;2022-12-10T09:13:21;0.90;99.90
11264;DHT22;5689;48.798;9.070;2022-12-10T09:15:50;0.80;99.90
11264;DHT22;5689;48.798;9.070;2022-12-10T09:18:19;0.90;99.90
11264;DHT22;5689;48.798;9.070;2022-12-10T09:20:47;0.90;99.90
11264;DHT22;5689;48.798;9.070;2022-12-10T09:23:15;0.90;99.90
11264;DHT22;5689;48.798;9.070;2022-12-10T09:25:43;1.00;99.90
11264;DHT22;5689;48.798;9.070;2022-12-10T09:28:12;0.90;99.90
11264;DHT22;5689;48.798;9.070;2022-12-10T09:30:40;1.00;99.90
11264;DHT22;5689;48.798;9.070;2022-12-10T09:33:08;0.90;99.90
11264;DHT22;5689;48.798;9.070;2022-12-10T09:35:40;1.10;99.90
11264;DHT22;5689;48.798;9.070;2022-12-10T09:38:10;0.90;99.90
11264;DHT22;5689;48.798;9.070;2022-12-10T09:40:43;0.90;99.90
11264;DHT22;5689;48.798;9.070;2022-12-10T09:43:19;2.40;99.90
11264;DHT22;5689;48.798;9.070;2022-12-10T09:45:59;1.20;99.90
11264;DHT22;5689;48.798;9.070;2022-12-10T09:48:32;1.10;99.90
11264;DHT22;5689;48.798;9.070;2022-12-10T09:51:08;1.10;99.90
11264;DHT22;5689;48.798;9.070;2022-12-10T09:53:38;1.00;99.90
11264;DHT22;5689;48.798;9.070;2022-12-10T09:56:18;1.20;99.90
11264;DHT22;5689;48.798;9.070;2022-12-10T09:58:48;1.20;99.90
11264;DHT22;5689;48.798;9.070;2022-12-10T10:01:19;1.10;99.90
11264;DHT22;5689;48.798;9.070;2022-12-10T10:03:50;1.00;99.90
11264;DHT22;5689;48.798;9.070;2022-12-10T10:06:21;1.10;99.90
11264;DHT22;5689;48.798;9.070;2022-12-10T10:08:52;1.10;99.90
11264;DHT22;5689;48.798;9.070;2022-12-10T10:11:23;1.20;99.90
11264;DHT22;5689;48.798;9.070;2022-12-10T10:13:55;1.20;99.90
11264;DHT22;5689;48.798;9.070;2022-12-10T10:16:26;1.30;99.90
11264;DHT22;5689;48.798;9.070;2022-12-10T10:18:58;1.30;99.90
11264;DHT22;5689;48.798;9.070;2022-12-10T10:21:28;1.20;99.90
11264;DHT22;5689;48.798;9.070;2022-12-10T10:23:56;1.20;99.90
11264;DHT22;5689;48.798;9.070;2022-12-10T10:26:25;1.40;99.90
11264;DHT22;5689;48.798;9.070;2022-12-10T10:28:59;1.30;99.90
11264;DHT22;5689;48.798;9.070;2022-12-10T10:31:31;1.30;99.90
11264;DHT22;5689;48.798;9.070;2022-12-10T10:34:01;1.50;99.90
11264;DHT22;5689;48.798;9.070;2022-12-10T10:36:32;1.40;99.90
11264;DHT22;5689;48.798;9.070;2022-12-10T10:39:08;1.30;99.90
11264;DHT22;5689;48.798;9.070;2022-12-10T10:41:39;1.40;99.90
11264;DHT22;5689;48.798;9.070;2022-12-10T10:44:16;1.30;99.90
11264;DHT22;5689;48.798;9.070;2022-12-10T10:46:45;1.20;99.90
11264;DHT22;5689;48.798;9.070;2022-12-10T10:49:22;1.30;99.90
11264;DHT22;5689;48.798;9.070;2022-12-10T10:51:51;1.30;99.90
11264;DHT22;5689;48.798;9.070;2022-12-10T10:54:34;1.30;99.90
11264;DHT22;5689;48.798;9.070;2022-12-10T10:57:11;1.40;99.90
11264;DHT22;5689;48.798;9.070;2022-12-10T10:59:41;1.40;99.90
11264;DHT22;5689;48.798;9.070;2022-12-10T11:02:19;1.50;99.90
11264;DHT22;5689;48.798;9.070;2022-12-10T11:04:50;1.80;99.90
11264;DHT22;5689;48.798;9.070;2022-12-10T11:07:24;1.70;99.90
11264;DHT22;5689;48.798;9.070;2022-12-10T11:09:54;1.90;99.90
11264;DHT22;5689;48.798;9.070;2022-12-10T11:12:29;1.70;99.90
11264;DHT22;5689;48.798;9.070;2022-12-10T11:14:59;1.70;99.90
11264;DHT22;5689;48.798;9.070;2022-12-10T11:17:27;1.50;99.90
11264;DHT22;5689;48.798;9.070;2022-12-10T11:19:58;1.50;99.90
11264;DHT22;5689;48.798;9.070;2022-12-10T11:22:29;1.60;99.90
11264;DHT22;5689;48.798;9.070;2022-12-10T11:24:58;1.80;99.90
11264;DHT22;5689;48.798;9.070;2022-12-10T11:27:36;1.80;99.90
11264;DHT22;5689;48.798;9.070;2022-12-10T11:30:12;1.90;99.90
11264;DHT22;5689;48.798;9.070;2022-12-10T11:32:59;1.90;99.90
11264;DHT22;5689;48.798;9.070;2022-12-10T11:35:40;1.80;99.90
11264;DHT22;5689;48.798;9.070;2022-12-10T11:38:16;1.50;99.90
11264;DHT22;5689;48.798;9.070;2022-12-10T11:40:50;1.70;99.90
11264;DHT22;5689;48.798;9.070;2022-12-10T11:43:50;1.60;99.90
11264;DHT22;5689;48.798;9.070;2022-12-10T11:46:35;1.70;99.90
11264;DHT22;5689;48.798;9.070;2022-12-10T11:49:18;1.80;99.90
11264;DHT22;5689;48.798;9.070;2022-12-10T11:51:53;1.80;99.90
11264;DHT22;5689;48.798;9.070;2022-12-10T11:54:37;1.70;99.90
11264;DHT22;5689;48.798;9.070;2022-12-10T11:57:13;1.70;99.90
11264;DHT22;5689;48.798;9.070;2022-12-10T11:59:49;1.80;99.90
11264;DHT22;5689;48.798;9.070;2022-12-10T12:03:06;1.80;99.90
11264;DHT22;5689;48.798;9.070;2022-12-10T12:05:52;1.80;99.90
11264;DHT22;5689;48.798;9.070;2022-12-10T12:08:33;1.90;99.90
11264;DHT22;5689;48.798;9.070;2022-12-10T12:11:23;1.90;99.90
11264;DHT22;5689;48.798;9.070;2022-12-10T12:13:57;2.00;99.90
11264;DHT22;5689;48.798;9.070;2022-12-10T12:16:31;2.00;99.90
11264;DHT22;5689;48.798;9.070;2022-12-10T12:19:08;1.90;99.90
11264;DHT22;5689;48.798;9.070;2022-12-10T12:21:37;2.00;99.90
11264;DHT22;5689;48.798;9.070;2022-12-10T12:24:11;1.90;99.90
11264;DHT22;5689;48.798;9.070;2022-12-10T12:26:42;2.00;99.90
11264;DHT22;5689;48.798;9.070;2022-12-10T12:29:15;2.10;99.90
11264;DHT22;5689;48.798;9.070;2022-12-10T12:31:49;2.20;99.90
11264;DHT22;5689;48.798;9.070;2022-12-10T12:34:26;2.30;99.90
11264;DHT22;5689;48.798;9.070;2022-12-10T12:36:55;2.00;99.90
11264;DHT22;5689;48.798;9.070;2022-12-10T12:39:28;1.80;99.90
11264;DHT22;5689;48.798;9.070;2022-12-10T12:42:04;1.80;99.90
11264;DHT22;5689;48.798;9.070;2022-12-10T12:44:43;1.80;99.90
11264;DHT22;5689;48.798;9.070;2022-12-10T12:47:22;1.70;99.90
11264;DHT22;5689;48.798;9.070;2022-12-10T12:49:55;1.60;99.90
11264;DHT22;5689;48.798;9.070;2022-12-10T12:52:29;1.70;99.90
11264;DHT22;5689;48.798;9.070;2022-12-10T12:55:04;1.80;99.90
11264;DHT22;5689;48.798;9.070;2022-12-10T12:57:38;1.80;99.90
11264;DHT22;5689;48.798;9.070;2022-12-10T13:00:12;1.90;99.90
11264;DHT22;5689;48.798;9.070;2022-12-10T13:02:56;1.90;99.90
11264;DHT22;5689;48.798;9.070;2022-12-10T13:05:29;1.70;99.90
11264;DHT22;5689;48.798;9.070;2022-12-10T13:08:24;1.70;99.90
11264;DHT22;5689;48.798;9.070;2022-12-10T13:10:56;1.70;99.90
11264;DHT22;5689;48.798;9.070;2022-12-10T13:13:29;1.70;99.90
11264;DHT22;5689;48.798;9.070;2022-12-10T13:19:25;1.70;99.90
11264;DHT22;5689;48.798;9.070;2022-12-10T13:22:00;1.70;99.90
11264;DHT22;5689;48.798;9.070;2022-12-10T13:24:45;1.80;99.90
11264;DHT22;5689;48.798;9.070;2022-12-10T13:27:19;1.70;99.90
11264;DHT22;5689;48.798;9.070;2022-12-10T13:29:57;1.70;99.90
11264;DHT22;5689;48.798;9.070;2022-12-10T13:32:43;1.50;99.90
11264;DHT22;5689;48.798;9.070;2022-12-10T13:35:24;1.50;99.90
11264;DHT22;5689;48.798;9.070;2022-12-10T13:37:57;1.60;99.90
11264;DHT22;5689;48.798;9.070;2022-12-10T13:40:37;1.30;99.90
11264;DHT22;5689;48.798;9.070;2022-12-10T13:43:26;1.30;99.90
11264;DHT22;5689;48.798;9.070;2022-12-10T13:46:27;1.30;99.90
11264;DHT22;5689;48.798;9.070;2022-12-10T13:48:59;1.20;99.90
11264;DHT22;5689;48.798;9.070;2022-12-10T13:51:45;1.10;99.90
11264;DHT22;5689;48.798;9.070;2022-12-10T13:54:30;1.10;99.90
11264;DHT22;5689;48.798;9.070;2022-12-10T13:57:12;1.10;99.90
11264;DHT22;5689;48.798;9.070;2022-12-10T13:59:49;1.10;99.90
11264;DHT22;5689;48.798;9.070;2022-12-10T14:05:52;1.10;99.90
11264;DHT22;5689;48.798;9.070;2022-12-10T14:08:27;1.20;99.90
11264;DHT22;5689;48.798;9.070;2022-12-10T14:10:58;1.20;99.90
11264;DHT22;5689;48.798;9.070;2022-12-10T14:13:32;1.10;99.90
11264;DHT22;5689;48.798;9.070;2022-12-10T14:16:02;1.10;99.90
11264;DHT22;5689;48.798;9.070;2022-12-10T14:18:33;1.10;99.90
11264;DHT22;5689;48.798;9.070;2022-12-10T14:21:05;1.10;99.90
11264;DHT22;5689;48.798;9.070;2022-12-10T14:23:35;1.10;99.90
11264;DHT22;5689;48.798;9.070;2022-12-10T14:26:14;1.30;99.90
11264;DHT22;5689;48.798;9.070;2022-12-10T14:28:45;1.30;99.90
11264;DHT22;5689;48.798;9.070;2022-12-10T14:31:16;1.20;99.90
11264;DHT22;5689;48.798;9.070;2022-12-10T14:33:46;1.20;99.90
11264;DHT22;5689;48.798;9.070;2022-12-10T14:36:17;1.20;99.90
11264;DHT22;5689;48.798;9.070;2022-12-10T14:38:47;1.10;99.90
11264;DHT22;5689;48.798;9.070;2022-12-10T14:41:21;1.00;99.90
11264;DHT22;5689;48.798;9.070;2022-12-10T14:43:50;0.90;99.90
11264;DHT22;5689;48.798;9.070;2022-12-10T14:46:20;0.90;99.90
11264;DHT22;5689;48.798;9.070;2022-12-10T14:48:51;0.90;99.90
11264;DHT22;5689;48.798;9.070;2022-12-10T14:51:23;0.90;99.90
11264;DHT22;5689;48.798;9.070;2022-12-10T14:53:53;0.80;99.90
11264;DHT22;5689;48.798;9.070;2022-12-10T14:56:26;0.90;99.90
11264;DHT22;5689;48.798;9.070;2022-12-10T14:59:02;0.80;99.90
11264;DHT22;5689;48.798;9.070;2022-12-10T15:01:33;0.80;99.90
11264;DHT22;5689;48.798;9.070;2022-12-10T15:04:04;0.90;99.90
11264;DHT22;5689;48.798;9.070;2022-12-10T15:06:34;0.90;99.90
11264;DHT22;5689;48.798;9.070;2022-12-10T15:09:04;0.80;99.90
11264;DHT22;5689;48.798;9.070;2022-12-10T15:11:34;0.80;99.90
11264;DHT22;5689;48.798;9.070;2022-12-10T15:14:03;0.70;99.90
11264;DHT22;5689;48.798;9.070;2022-12-10T15:16:38;0.80;99.90
11264;DHT22;5689;48.798;9.070;2022-12-10T15:19:09;0.80;99.90
11264;DHT22;5689;48.798;9.070;2022-12-10T15:21:41;0.70;99.90
11264;DHT22;5689;48.798;9.070;2022-12-10T15:24:15;0.70;99.90
11264;DHT22;5689;48.798;9.070;2022-12-10T15:26:47;0.70;99.90
11264;DHT22;5689;48.798;9.070;2022-12-10T15:29:31;0.60;99.90
11264;DHT22;5689;48.798;9.070;2022-12-10T15:32:04;0.50;99.90
11264;DHT22;5689;48.798;9.070;2022-12-10T15:34:39;0.60;99.90
11264;DHT22;5689;48.798;9.070;2022-12-10T15:37:17;0.50;99.90
11264;DHT22;5689;48.798;9.070;2022-12-10T15:39:48;0.50;99.90
11264;DHT22;5689;48.798;9.070;2022-12-10T15:42:38;0.40;99.90
11264;DHT22;5689;48.798;9.070;2022-12-10T15:45:18;0.50;99.90
11264;DHT22;5689;48.798;9.070;2022-12-10T15:47:47;0.50;99.90
11264;DHT22;5689;48.798;9.070;2022-12-10T15:50:15;0.50;99.90
11264;DHT22;5689;48.798;9.070;2022-12-10T15:52:43;0.40;99.90
11264;DHT22;5689;48.798;9.070;2022-12-10T15:55:13;0.60;99.90
11264;DHT22;5689;48.798;9.070;2022-12-10T15:57:44;0.70;99.90
11264;DHT22;5689;48.798;9.070;2022-12-10T16:00:18;0.70;99.90
11264;DHT22;5689;48.798;9.070;2022-12-10T16:02:50;0.80;99.90
11264;DHT22;5689;48.798;9.070;2022-12-10T16:05:22;0.80;99.90
11264;DHT22;5689;48.798;9.070;2022-12-10T16:07:52;0.80;99.90
11264;DHT22;5689;48.798;9.070;2022-12-10T16:10:23;0.70;99.90
11264;DHT22;5689;48.798;9.070;2022-12-10T16:12:58;0.70;99.90
11264;DHT22;5689;48.798;9.070;2022-12-10T16:15:29;0.80;99.90
11264;DHT22;5689;48.798;9.070;2022-12-10T16:17:58;0.80;99.90
11264;DHT22;5689;48.798;9.070;2022-12-10T16:20:27;0.80;99.90
11264;DHT22;5689;48.798;9.070;2022-12-10T16:22:57;0.60;99.90
11264;DHT22;5689;48.798;9.070;2022-12-10T16:25:28;0.40;99.90
11264;DHT22;5689;48.798;9.070;2022-12-10T16:27:58;0.30;99.90
11264;DHT22;5689;48.798;9.070;2022-12-10T16:30:33;0.20;99.90
11264;DHT22;5689;48.798;9.070;2022-12-10T16:33:04;0.20;99.90
11264;DHT22;5689;48.798;9.070;2022-12-10T16:35:32;0.20;99.90
11264;DHT22;5689;48.798;9.070;2022-12-10T16:38:00;0.30;99.90
11264;DHT22;5689;48.798;9.070;2022-12-10T16:40:31;0.30;99.90
11264;DHT22;5689;48.798;9.070;2022-12-10T16:43:00;0.40;99.90